createdAt,value
2023-05-12T03:59:44.584Z,11.73
2023-05-12T04:02:48.060Z,11.70
2023-05-12T04:05:50.589Z,11.74
2023-05-12T04:08:52.687Z,11.83
2023-05-12T04:11:55.062Z,11.88
2023-05-12T04:14:58.196Z,11.78
2023-05-12T04:18:00.874Z,11.65
2023-05-12T04:21:03.273Z,11.81
2023-05-12T04:24:05.875Z,11.93
2023-05-12T04:27:08.680Z,11.72
2023-05-12T04:30:11.446Z,11.64
2023-05-12T04:33:14.250Z,11.71
2023-05-12T04:36:17.146Z,11.64
2023-05-12T04:39:19.656Z,11.86
2023-05-12T04:42:22.472Z,11.83
2023-05-12T04:45:24.827Z,11.79
2023-05-12T04:48:29.017Z,11.82
2023-05-12T04:51:32.130Z,11.81
2023-05-12T04:54:34.504Z,11.96
2023-05-12T04:57:36.667Z,11.91
2023-05-12T05:00:39.956Z,11.89
2023-05-12T05:03:42.579Z,11.78
2023-05-12T05:06:45.088Z,11.64
2023-05-12T05:09:47.994Z,11.69
2023-05-12T05:12:50.405Z,11.78
2023-05-12T05:15:53.896Z,11.82
2023-05-12T05:18:58.268Z,11.97
2023-05-12T05:22:01.337Z,11.80
2023-05-12T05:25:04.648Z,11.75
2023-05-12T05:28:08.069Z,11.73
2023-05-12T05:31:17.302Z,11.85
2023-05-12T05:34:19.765Z,11.90
2023-05-12T05:37:23.016Z,11.81
2023-05-12T05:40:25.198Z,11.79
2023-05-12T05:43:27.600Z,11.80
2023-05-12T05:46:29.983Z,11.81
2023-05-12T05:49:33.201Z,11.76
2023-05-12T05:52:35.885Z,11.85
2023-05-12T05:55:42.412Z,11.90
2023-05-12T05:58:44.902Z,12.03
2023-05-12T06:01:50.914Z,12.13
2023-05-12T06:04:54.608Z,12.09
2023-05-12T06:07:56.997Z,12.03
2023-05-12T06:11:00.885Z,12.18
2023-05-12T06:14:03.380Z,12.08
2023-05-12T06:17:08.273Z,12.07
2023-05-12T06:20:11.091Z,12.02
2023-05-12T06:23:13.526Z,11.87
2023-05-12T06:26:15.678Z,11.95
2023-05-12T06:29:18.120Z,12.03
2023-05-12T06:32:20.318Z,12.12
2023-05-12T06:35:22.797Z,12.12
2023-05-12T06:38:24.995Z,12.12
2023-05-12T06:41:27.495Z,12.15
2023-05-12T06:44:29.693Z,12.11
2023-05-12T06:47:32.139Z,12.20
2023-05-12T06:50:34.308Z,12.11
2023-05-12T06:53:39.822Z,12.20
2023-05-12T06:56:41.975Z,12.34
2023-05-12T06:59:44.454Z,12.22
2023-05-12T07:02:46.671Z,12.20
2023-05-12T07:05:49.199Z,12.32
2023-05-12T07:08:51.384Z,12.47
2023-05-12T07:11:54.327Z,12.49
2023-05-12T07:14:56.455Z,12.60
2023-05-12T07:17:58.953Z,12.65
2023-05-12T07:21:01.403Z,12.63
2023-05-12T07:24:05.988Z,12.62
2023-05-12T07:27:08.233Z,12.61
2023-05-12T07:30:11.229Z,12.54
2023-05-12T07:33:13.446Z,12.58
2023-05-12T07:36:15.993Z,12.56
2023-05-12T07:39:24.301Z,12.63
2023-05-12T07:42:29.944Z,12.67
2023-05-12T07:45:32.144Z,12.68
2023-05-12T07:48:39.774Z,12.88
2023-05-12T07:51:42.164Z,12.91
2023-05-12T07:54:44.530Z,12.92
2023-05-12T07:57:46.915Z,12.91
2023-05-12T08:00:49.535Z,12.98
2023-05-12T08:03:52.170Z,13.00
2023-05-12T08:06:54.947Z,13.01
2023-05-12T08:09:57.698Z,13.07
2023-05-12T08:12:59.815Z,13.02
2023-05-12T08:16:02.600Z,13.09
2023-05-12T08:19:04.856Z,13.15
2023-05-12T08:22:07.330Z,13.20
2023-05-12T08:25:12.241Z,13.24
2023-05-12T08:28:15.992Z,13.14
2023-05-12T08:31:18.293Z,13.06
2023-05-12T08:34:21.272Z,13.03
2023-05-12T08:37:23.865Z,13.03
2023-05-12T08:40:33.969Z,13.18
2023-05-12T08:43:50.003Z,13.17
2023-05-12T08:46:57.043Z,13.28
2023-05-12T08:50:01.470Z,13.39
2023-05-12T08:53:05.451Z,13.35
2023-05-12T08:59:17.323Z,13.33
2023-05-12T09:02:22.808Z,13.36
2023-05-12T09:05:28.704Z,13.36
2023-05-12T09:08:33.063Z,13.32
2023-05-12T09:11:35.812Z,13.33
2023-05-12T09:14:41.893Z,13.24
2023-05-12T09:17:46.678Z,12.98
2023-05-12T09:20:48.801Z,12.88
2023-05-12T09:24:05.841Z,12.86
2023-05-12T09:27:08.258Z,12.81
2023-05-12T09:30:11.696Z,12.88
2023-05-12T09:33:14.158Z,12.72
2023-05-12T09:36:26.126Z,12.71
2023-05-12T09:39:28.994Z,12.56
2023-05-12T09:42:32.958Z,12.37
2023-05-12T09:45:36.685Z,12.37
2023-05-12T09:48:39.196Z,12.44
2023-05-12T09:51:41.835Z,12.53
2023-05-12T09:54:44.247Z,12.62
2023-05-12T09:57:46.924Z,12.67
2023-05-12T10:01:13.619Z,12.57
2023-05-12T10:04:15.242Z,12.66
2023-05-12T10:07:22.500Z,12.64
2023-05-12T10:10:26.496Z,12.44
2023-05-12T10:13:29.251Z,12.41
2023-05-12T10:16:33.458Z,12.41
2023-05-12T10:19:36.162Z,12.41
2023-05-12T10:22:40.498Z,12.36
2023-05-12T10:25:44.214Z,12.16
2023-05-12T10:28:48.856Z,11.94
2023-05-12T10:31:51.142Z,11.92
2023-05-12T10:34:53.886Z,11.94
2023-05-12T10:37:56.040Z,12.06
2023-05-12T10:41:05.575Z,12.06
2023-05-12T10:44:07.873Z,12.10
2023-05-12T10:47:14.877Z,12.10
2023-05-12T10:50:27.072Z,12.20
2023-05-12T10:53:47.652Z,12.31
2023-05-12T10:56:51.430Z,12.47
2023-05-12T10:59:59.908Z,12.47
2023-05-12T11:03:08.160Z,12.57
2023-05-12T11:06:19.425Z,12.56
2023-05-12T11:09:22.356Z,12.52
2023-05-12T11:12:27.763Z,12.36
2023-05-12T11:15:31.329Z,12.19
2023-05-12T11:18:33.823Z,12.15
2023-05-12T11:21:37.087Z,12.14
2023-05-12T11:24:41.291Z,12.07
2023-05-12T11:27:53.357Z,12.10
2023-05-12T11:30:56.068Z,12.06
2023-05-12T11:34:12.815Z,12.11
2023-05-12T11:37:16.140Z,12.17
2023-05-12T11:40:22.912Z,12.29
2023-05-12T11:43:26.175Z,12.32
2023-05-12T11:46:29.624Z,12.38
2023-05-12T11:49:32.787Z,12.36
2023-05-12T11:52:34.911Z,12.38
2023-05-12T11:55:37.341Z,12.39
2023-05-12T11:58:39.541Z,12.41
2023-05-12T12:01:49.269Z,12.43
2023-05-12T12:04:52.544Z,12.37
2023-05-12T12:08:05.302Z,12.46
2023-05-12T12:11:07.786Z,12.45
2023-05-12T12:14:10.029Z,12.42
2023-05-12T12:17:12.419Z,12.41
2023-05-12T12:20:17.338Z,12.42
2023-05-12T12:23:21.418Z,12.36
2023-05-12T12:26:23.617Z,12.34
2023-05-12T12:29:28.342Z,12.32
2023-05-12T12:32:31.206Z,12.36
2023-05-12T12:35:33.579Z,12.32
2023-05-12T12:38:35.779Z,12.35
2023-05-12T12:41:38.363Z,12.21
2023-05-12T12:44:40.443Z,12.07
2023-05-12T12:47:43.225Z,12.08
2023-05-12T12:50:45.392Z,12.18
2023-05-12T12:53:47.837Z,12.22
2023-05-12T12:56:50.394Z,12.23
2023-05-12T12:59:52.893Z,12.19
2023-05-12T13:02:56.362Z,12.21
2023-05-12T13:05:59.042Z,12.45
2023-05-12T13:09:01.652Z,12.39
2023-05-12T13:12:04.923Z,12.34
2023-05-12T13:15:07.670Z,12.35
2023-05-12T13:18:10.122Z,12.20
2023-05-12T13:21:12.345Z,12.22
2023-05-12T13:24:14.753Z,12.27
2023-05-12T13:27:16.857Z,12.19
2023-05-12T13:30:19.260Z,12.16
2023-05-12T13:33:21.530Z,12.15
2023-05-12T13:36:23.915Z,12.12
2023-05-12T13:39:26.058Z,12.05
2023-05-12T13:42:28.527Z,12.06
2023-05-12T13:45:30.770Z,12.12
2023-05-12T13:48:33.133Z,12.15
2023-05-12T13:51:35.396Z,12.13
2023-05-12T13:54:37.781Z,12.12
2023-05-12T13:57:39.895Z,12.06
2023-05-12T14:00:42.367Z,12.00
2023-05-12T14:03:45.595Z,11.97
2023-05-12T14:06:47.768Z,11.93
2023-05-12T14:09:50.250Z,11.86
2023-05-12T14:12:52.832Z,11.78
2023-05-12T14:15:55.363Z,11.70
2023-05-12T14:18:59.682Z,11.60
2023-05-12T14:22:05.805Z,11.58
2023-05-12T14:25:11.994Z,11.76
2023-05-12T14:28:14.519Z,11.90
2023-05-12T14:31:17.328Z,11.93
2023-05-12T14:34:20.366Z,11.75
2023-05-12T14:37:22.466Z,11.72
2023-05-12T14:40:24.955Z,11.63
2023-05-12T14:43:27.039Z,11.64
2023-05-12T14:46:29.471Z,11.67
2023-05-12T14:49:31.828Z,11.73
2023-05-12T14:52:38.227Z,11.70
2023-05-12T14:55:40.721Z,11.69
2023-05-12T14:58:43.093Z,11.68
2023-05-12T15:01:45.346Z,11.65
2023-05-12T15:04:48.561Z,11.65
2023-05-12T15:07:50.660Z,11.82
2023-05-12T15:10:53.026Z,11.83
2023-05-12T15:13:55.342Z,11.85
2023-05-12T15:16:57.782Z,11.77
